Aurora, CO (80044)

1:09 AM MDT on August 22, 2014 (GMT -0600)
North Aurora / Fitzsimmons | Change Station
CLOSE
Current Station
Personal Weather Station
Location: Aurora, CO
Elevation: 5364 ft
Nearby Weather Stations

Elev 5364 ft 39.75 °N, 104.85 °W | Updated 3 seconds ago

Mostly Cloudy
Mostly Cloudy
69.1 °F
Feels Like 69.1 °F
N
0.0
Wind Variable Wind from North
Gusts 0.0 mph

Today
High -- | Low -- °F
--% Chance of Precip.
Yesterday
High -- | Low -- °F
Precip. -- in
6:18 AM 7:45 PM
Waning Crescent, 10% visible
Pressure 29.97 in
Visibility 10.0 miles
Clouds Scattered Clouds 7000 ft
Mostly Cloudy 14000 ft
Mostly Cloudy 16000 ft
Dew Point 51 °F
Humidity 53%
Rainfall 0.00 in
Snow Depth Not available.
UV 0 out of 12
Pollen 9.70 out of 12
Ozone Good
PM2.5 Good
Flu Activity Not available.
METAR KBKF 220658Z 00000KT 10SM SCT070 BKN140 BKN160 19/11 A3019 RMK AO2A SLP147 T01850110 402960138

More Conditions Fewer Conditions

Pressure 29.97 in
Visibility 10.0 miles
Clouds Scattered Clouds 7000 ft
Mostly Cloudy 14000 ft
Mostly Cloudy 16000 ft
Dew Point 51 °F
Humidity 53%
Rainfall 0.00 in
Snow Depth Not available.
UV 0 out of 12
Pollen 9.70 out of 12
Ozone Good
PM2.5 Good
Flu Activity Not available.
METAR KBKF 220658Z 00000KT 10SM SCT070 BKN140 BKN160 19/11 A3019 RMK AO2A SLP147 T01850110 402960138

More Conditions Fewer Conditions

Nowcast | as of 12:58 am MDT on August 22, 2014

Scattered showers and a few thunderstorms will continue along southern areas of the Front Range until 3 am. Brief moderate rain and gusty winds to 35 mph will be possible. Elsewhere...light showers will move across the southern foothills. Rainfall amounts with these showers will be less than one tenth of an inch.

×

10-Day Weather Forecast

Almanac

Astronomy

Aug. 22, 2014 Rise Set
Actual Time 6:18 AM MDT 7:45 PM MDT
Civil Twilight 5:49 AM MDT 8:13 PM MDT
Nautical Twilight 5:15 AM MDT 8:47 PM MDT
Astronomical Twilight 4:39 AM MDT 9:23 PM MDT
Moon 3:43 AM MDT 5:55 PM MDT
Length of Visible Light 14h 24m
Length of Day
13h 27m
Tomorrow will be 2m 24s shorter.
Waning Crescent, 10% of the Moon is Illuminated
Today
Waning Crescent
Aug 25
New
Sep 2
First Quarter
Sep 8
Full
Sep 15
Last Quarter

Today's Extremes

State Highs State Lows

Community

WunderPhotos

Upload Photos

1,746,131 photos uploaded!

Nearby

Air Quality

  Air Quality AQ Index Pollutant
Yesterday Good
OZONE
Yesterday Good
PM10
Current Good
OZONE
Current Good
PM2.5
Thursday Moderate
OZONE
Thursday Good
PM2.5
Friday Good
OZONE
Friday Good
PM2.5

Snow Depth

Station Depth Elevation
Echo Lake 0 in 10600 ft
Niwot 0 in 9910 ft
University Camp 0 in 10300 ft
Berthoud Summit 0 in 11300 ft
Jackwhacker Gulch 0 in 10960 ft

Earthquake Activity

City Distance Mag. Time & Date
No recent earthquake activity has been reported nearby.
Minimum magnitude displayed is 2.5.

Coastal Water Temperatures

Place Temperature
No Stations Reporting

Nearby Weather Stations